createdAt,value
2018-03-06T00:00:40.961Z,224.00
2018-03-06T00:03:10.122Z,213.53
2018-03-06T00:05:39.326Z,222.40
2018-03-06T00:08:08.486Z,225.93
2018-03-06T00:10:37.694Z,223.83
2018-03-06T00:13:06.866Z,211.40
2018-03-06T00:15:36.025Z,223.73
2018-03-06T00:18:05.205Z,212.30
2018-03-06T00:20:34.365Z,214.33
2018-03-06T00:23:03.517Z,218.43
2018-03-06T00:25:32.751Z,221.53
2018-03-06T00:28:01.905Z,203.10
2018-03-06T00:30:31.061Z,226.83
2018-03-06T00:33:00.258Z,218.53
2018-03-06T00:35:29.410Z,207.60
2018-03-06T00:37:58.574Z,211.27
2018-03-06T00:40:27.783Z,218.97
2018-03-06T00:42:56.942Z,206.93
2018-03-06T00:45:26.102Z,221.50
2018-03-06T00:47:55.346Z,211.13
2018-03-06T00:50:24.552Z,221.77
2018-03-06T00:52:53.665Z,216.90
2018-03-06T00:55:22.887Z,191.87
2018-03-06T00:57:52.053Z,217.63
2018-03-06T01:00:21.252Z,217.37
2018-03-06T01:02:50.457Z,211.40
2018-03-06T01:05:19.885Z,212.03
2018-03-06T01:07:49.045Z,211.53
2018-03-06T01:10:18.258Z,229.37
2018-03-06T01:12:47.470Z,218.67
2018-03-06T01:15:16.644Z,210.40
2018-03-06T01:17:45.819Z,206.00
2018-03-06T01:20:14.998Z,210.53
2018-03-06T01:22:44.168Z,200.13
2018-03-06T01:25:13.337Z,220.03
2018-03-06T01:27:42.581Z,202.30
2018-03-06T01:30:11.734Z,196.83
2018-03-06T01:32:40.882Z,206.47
2018-03-06T01:35:10.119Z,228.83
2018-03-06T01:37:39.278Z,196.50
2018-03-06T01:40:08.508Z,213.70
2018-03-06T01:42:37.675Z,211.50
2018-03-06T01:45:06.838Z,212.90
2018-03-06T01:47:36.026Z,211.33
2018-03-06T01:50:05.185Z,210.57
2018-03-06T01:52:34.341Z,198.87
2018-03-06T01:55:03.531Z,194.70
2018-03-06T01:57:32.719Z,196.23
2018-03-06T02:00:02.128Z,196.83
2018-03-06T02:02:31.269Z,214.73
2018-03-06T02:05:00.445Z,205.13
2018-03-06T02:07:29.753Z,208.20
2018-03-06T02:09:58.911Z,195.97
2018-03-06T02:12:28.099Z,206.23
2018-03-06T02:14:57.263Z,203.97
2018-03-06T02:17:26.433Z,199.30
2018-03-06T02:19:55.603Z,206.00
2018-03-06T02:22:24.761Z,199.27
2018-03-06T02:24:53.933Z,200.60
2018-03-06T02:27:23.094Z,204.17
2018-03-06T02:29:52.258Z,202.90
2018-03-06T02:32:21.450Z,202.37
2018-03-06T02:34:50.603Z,207.43
2018-03-06T02:37:19.808Z,201.70
2018-03-06T02:39:49.004Z,215.33
2018-03-06T02:42:18.167Z,213.90
2018-03-06T02:44:47.360Z,212.33
2018-03-06T02:47:16.517Z,209.03
2018-03-06T02:49:45.722Z,207.40
2018-03-06T02:52:14.919Z,217.17
2018-03-06T02:54:44.066Z,199.27
2018-03-06T02:57:13.213Z,220.47
2018-03-06T02:59:42.413Z,205.67
2018-03-06T03:02:11.594Z,222.33
2018-03-06T03:04:40.764Z,207.87
2018-03-06T03:07:09.954Z,189.83
2018-03-06T03:09:39.674Z,207.90
2018-03-06T03:12:08.829Z,208.33
2018-03-06T03:14:38.043Z,198.00
2018-03-06T03:17:07.224Z,222.50
2018-03-06T03:19:36.387Z,217.70
2018-03-06T03:22:05.659Z,204.80
2018-03-06T03:24:34.819Z,236.83
2018-03-06T03:27:03.980Z,218.27
2018-03-06T03:29:33.173Z,215.43
2018-03-06T03:32:02.330Z,214.40
2018-03-06T03:34:31.482Z,216.23
2018-03-06T03:37:00.666Z,210.03
2018-03-06T03:39:29.853Z,231.43
2018-03-06T03:41:59.010Z,221.50
2018-03-06T03:44:28.189Z,233.53
2018-03-06T03:46:57.365Z,218.40
2018-03-06T03:49:26.521Z,223.30
2018-03-06T03:51:55.734Z,211.70
2018-03-06T03:54:24.893Z,205.60
2018-03-06T03:56:54.047Z,215.97
2018-03-06T03:59:23.230Z,224.37
2018-03-06T04:01:52.393Z,206.00
2018-03-06T04:04:21.549Z,211.33
2018-03-06T04:06:50.789Z,233.77
2018-03-06T04:09:19.952Z,231.57
2018-03-06T04:11:49.559Z,212.30
2018-03-06T04:14:18.739Z,215.77
2018-03-06T04:16:47.887Z,219.53
2018-03-06T04:19:17.081Z,207.63
2018-03-06T04:21:46.252Z,227.20
2018-03-06T04:24:15.403Z,216.83
2018-03-06T04:26:44.625Z,224.73
2018-03-06T04:29:13.792Z,213.97
2018-03-06T04:31:42.950Z,211.70
2018-03-06T04:34:12.123Z,219.80
2018-03-06T04:36:41.290Z,233.37
2018-03-06T04:39:10.451Z,202.73
2018-03-06T04:41:39.619Z,207.33
2018-03-06T04:44:08.766Z,217.57
2018-03-06T04:46:37.930Z,224.63
2018-03-06T04:49:07.134Z,220.00
2018-03-06T04:51:36.303Z,222.73
2018-03-06T04:54:05.471Z,222.30
2018-03-06T04:56:34.661Z,195.63
2018-03-06T04:59:03.822Z,221.87
2018-03-06T05:01:32.990Z,210.10
2018-03-06T05:04:02.185Z,211.47
2018-03-06T05:06:31.373Z,219.97
2018-03-06T05:09:00.545Z,233.93
2018-03-06T05:11:29.768Z,237.73
2018-03-06T05:13:58.949Z,210.10
2018-03-06T05:16:28.130Z,220.67
2018-03-06T05:18:57.324Z,207.70
2018-03-06T05:21:26.494Z,223.00
2018-03-06T05:23:55.694Z,222.33
2018-03-06T05:26:24.865Z,215.73
2018-03-06T05:28:54.022Z,229.47
2018-03-06T05:31:23.188Z,215.77
2018-03-06T05:33:52.406Z,223.77
2018-03-06T05:36:21.563Z,215.83
2018-03-06T05:38:50.729Z,219.97
2018-03-06T05:41:19.910Z,218.33
2018-03-06T05:43:49.142Z,218.83
2018-03-06T05:46:18.298Z,226.30
2018-03-06T05:48:47.477Z,213.33
2018-03-06T05:51:16.668Z,222.57
2018-03-06T05:53:45.845Z,217.77
2018-03-06T05:56:15.059Z,227.60
2018-03-06T05:58:44.397Z,217.60
2018-03-06T06:01:13.557Z,213.07
2018-03-06T06:03:43.599Z,214.73
2018-03-06T06:06:12.791Z,215.63
2018-03-06T06:08:41.972Z,212.80
2018-03-06T06:11:11.157Z,217.43
2018-03-06T06:13:40.314Z,218.90
2018-03-06T06:16:09.622Z,208.60
2018-03-06T06:18:38.806Z,218.33
2018-03-06T06:21:07.961Z,219.03
2018-03-06T06:23:37.149Z,219.70
2018-03-06T06:26:06.314Z,211.87
2018-03-06T06:28:35.498Z,213.53
2018-03-06T06:31:04.644Z,210.90
2018-03-06T06:33:33.789Z,217.23
2018-03-06T06:36:02.966Z,201.53
2018-03-06T06:38:32.098Z,221.20
2018-03-06T06:41:01.536Z,208.83
2018-03-06T06:43:30.708Z,208.60
2018-03-06T06:45:59.861Z,217.37
2018-03-06T06:48:29.028Z,212.03
2018-03-06T06:50:58.173Z,220.60
2018-03-06T06:53:27.309Z,216.60
2018-03-06T06:55:56.499Z,216.50
2018-03-06T06:58:25.648Z,203.83
2018-03-06T07:00:54.805Z,208.77
2018-03-06T07:03:23.997Z,193.50
2018-03-06T07:05:53.143Z,198.03
2018-03-06T07:08:22.315Z,203.93
2018-03-06T07:10:51.461Z,207.47
2018-03-06T07:13:20.602Z,199.80
2018-03-06T07:15:49.804Z,202.63
2018-03-06T07:18:18.943Z,204.87
2018-03-06T07:20:48.085Z,204.83
2018-03-06T07:23:17.259Z,198.73
2018-03-06T07:25:46.419Z,207.20
2018-03-06T07:28:15.572Z,213.90
2018-03-06T07:30:44.755Z,203.70
2018-03-06T07:33:13.903Z,206.13
2018-03-06T07:35:43.064Z,213.40
2018-03-06T07:38:12.266Z,194.20
2018-03-06T07:40:41.433Z,212.70
2018-03-06T07:43:10.608Z,208.50
2018-03-06T07:45:39.801Z,209.57
2018-03-06T07:48:08.951Z,196.83
2018-03-06T07:50:38.110Z,204.50
2018-03-06T07:53:07.277Z,214.73
2018-03-06T07:55:36.426Z,207.07
2018-03-06T07:58:05.584Z,200.33
2018-03-06T08:00:34.780Z,212.77
2018-03-06T08:03:03.931Z,202.73
2018-03-06T08:05:33.184Z,197.73
2018-03-06T08:08:02.332Z,192.77
2018-03-06T08:10:31.470Z,210.00
2018-03-06T08:13:00.625Z,182.90
2018-03-06T08:15:29.778Z,201.50
2018-03-06T08:17:58.923Z,190.80
2018-03-06T08:20:28.385Z,200.83
2018-03-06T08:22:57.517Z,207.83
2018-03-06T08:25:26.662Z,206.70
2018-03-06T08:27:55.848Z,194.30
2018-03-06T08:30:24.997Z,197.60
2018-03-06T08:32:54.272Z,197.23
2018-03-06T08:35:23.412Z,196.07
2018-03-06T08:37:52.564Z,198.77
2018-03-06T08:40:21.750Z,184.07
2018-03-06T08:42:50.906Z,207.67
2018-03-06T08:45:20.057Z,188.23
2018-03-06T08:47:49.224Z,195.27
2018-03-06T08:50:18.358Z,195.73
2018-03-06T08:52:47.505Z,193.40
2018-03-06T08:55:16.664Z,189.93
2018-03-06T08:57:45.837Z,186.30
2018-03-06T09:00:15.010Z,188.03
2018-03-06T09:02:44.168Z,195.70
2018-03-06T09:05:13.371Z,182.37
2018-03-06T09:07:42.507Z,201.40
2018-03-06T09:10:11.641Z,194.93
2018-03-06T09:12:40.817Z,185.20
2018-03-06T09:15:09.967Z,184.60
2018-03-06T09:17:39.150Z,181.97
2018-03-06T09:20:08.304Z,179.87
2018-03-06T09:22:37.471Z,179.97
2018-03-06T09:25:06.646Z,181.33
2018-03-06T09:27:35.797Z,178.47
2018-03-06T09:30:04.977Z,176.00
2018-03-06T09:32:34.157Z,182.53
2018-03-06T09:35:03.281Z,176.17
2018-03-06T09:37:32.450Z,173.07
2018-03-06T09:40:01.585Z,188.97
2018-03-06T09:42:30.725Z,178.77
2018-03-06T09:44:59.905Z,175.30
2018-03-06T09:47:29.047Z,182.30
2018-03-06T09:49:58.193Z,186.57
2018-03-06T09:55:15.786Z,174.80
2018-03-06T09:57:44.923Z,186.17
2018-03-06T10:00:14.106Z,174.00
2018-03-06T10:02:43.270Z,166.80
2018-03-06T10:05:12.429Z,170.20
2018-03-06T10:07:41.581Z,173.40
2018-03-06T10:10:10.730Z,176.03
2018-03-06T10:12:39.904Z,170.70
2018-03-06T10:15:09.053Z,176.17
2018-03-06T10:17:38.222Z,171.50
2018-03-06T10:22:42.757Z,186.13
2018-03-06T10:25:11.909Z,172.00
2018-03-06T10:27:41.071Z,172.80
2018-03-06T10:30:10.250Z,174.20
2018-03-06T10:32:39.438Z,185.57
2018-03-06T10:35:08.616Z,174.77
2018-03-06T10:37:37.781Z,171.13
2018-03-06T10:40:06.918Z,171.63
2018-03-06T10:42:36.106Z,180.40
2018-03-06T10:45:05.243Z,183.13
2018-03-06T10:47:34.382Z,168.80
2018-03-06T10:50:03.549Z,176.63
2018-03-06T10:52:32.694Z,169.77
2018-03-06T10:55:01.864Z,173.03
2018-03-06T10:57:31.013Z,179.43
2018-03-06T11:00:00.196Z,170.80
2018-03-06T11:02:32.156Z,185.47
2018-03-06T11:05:01.329Z,176.70
2018-03-06T11:07:30.475Z,176.43
2018-03-06T11:09:59.657Z,187.53
2018-03-06T11:12:28.805Z,172.90
2018-03-06T11:14:57.961Z,174.10
2018-03-06T11:17:27.128Z,161.97
2018-03-06T11:19:56.277Z,164.23
2018-03-06T11:22:25.413Z,180.13
2018-03-06T11:24:54.761Z,181.97
2018-03-06T11:27:23.903Z,174.97
2018-03-06T11:29:53.089Z,175.10
2018-03-06T11:32:22.249Z,176.73
2018-03-06T11:34:51.430Z,179.23
2018-03-06T11:37:20.576Z,164.13
2018-03-06T11:39:49.800Z,179.60
2018-03-06T11:42:18.952Z,169.10
2018-03-06T11:44:48.077Z,167.90
2018-03-06T11:47:17.255Z,166.70
2018-03-06T11:49:46.393Z,180.93
2018-03-06T11:52:15.605Z,173.27
2018-03-06T11:54:44.802Z,175.87
2018-03-06T11:57:13.934Z,170.10
2018-03-06T11:59:43.079Z,173.67
2018-03-06T12:02:12.261Z,168.67
2018-03-06T12:04:41.407Z,170.37
2018-03-06T12:07:10.579Z,165.30
2018-03-06T12:09:39.747Z,168.40
2018-03-06T12:12:08.905Z,170.77
2018-03-06T12:14:38.042Z,160.40
2018-03-06T12:17:07.226Z,159.87
2018-03-06T12:19:36.362Z,158.30
2018-03-06T12:22:05.547Z,160.50
2018-03-06T12:24:34.698Z,159.17
2018-03-06T12:27:03.840Z,159.23
2018-03-06T12:29:33.027Z,155.10
2018-03-06T12:32:02.173Z,156.10
2018-03-06T12:34:31.324Z,151.00
2018-03-06T12:37:01.050Z,155.73
2018-03-06T12:39:30.197Z,155.33
2018-03-06T12:41:59.346Z,158.53
2018-03-06T12:44:28.532Z,163.43
2018-03-06T12:46:57.682Z,157.13
2018-03-06T12:49:26.828Z,163.00
2018-03-06T12:51:55.998Z,163.10
2018-03-06T12:54:25.153Z,159.07
2018-03-06T12:56:54.307Z,170.77
2018-03-06T12:59:23.563Z,159.13
2018-03-06T13:01:52.745Z,160.47
2018-03-06T13:04:21.898Z,147.87
2018-03-06T13:06:51.074Z,162.93
2018-03-06T13:09:20.230Z,155.63
2018-03-06T13:11:49.382Z,160.30
2018-03-06T13:14:18.595Z,162.87
2018-03-06T13:16:47.752Z,149.17
2018-03-06T13:19:16.901Z,164.17
2018-03-06T13:21:46.084Z,154.23
2018-03-06T13:24:15.257Z,166.40
2018-03-06T13:26:44.393Z,161.33
2018-03-06T13:29:13.559Z,152.30
2018-03-06T13:31:42.695Z,145.87
2018-03-06T13:34:11.857Z,163.57
2018-03-06T13:36:41.056Z,160.80
2018-03-06T13:39:10.700Z,151.63
2018-03-06T13:41:39.838Z,157.83
2018-03-06T13:44:09.054Z,145.10
2018-03-06T13:46:38.197Z,157.40
2018-03-06T13:49:07.399Z,163.17
2018-03-06T13:51:37.012Z,159.40
2018-03-06T13:54:06.201Z,155.77
2018-03-06T13:56:35.350Z,152.70
2018-03-06T13:59:04.526Z,161.30
2018-03-06T14:01:33.676Z,159.67
2018-03-06T14:04:02.836Z,162.20
2018-03-06T14:06:32.025Z,160.63
2018-03-06T14:09:01.167Z,150.07
2018-03-06T14:11:30.310Z,151.80
2018-03-06T14:13:59.506Z,153.67
2018-03-06T14:16:28.667Z,154.13
2018-03-06T14:18:57.838Z,150.80
2018-03-06T14:21:26.973Z,149.80
2018-03-06T14:23:56.125Z,157.90
2018-03-06T14:26:25.334Z,157.07
2018-03-06T14:28:54.490Z,163.80
2018-03-06T14:31:23.674Z,152.83
2018-03-06T14:33:52.830Z,155.03
2018-03-06T14:36:22.001Z,158.07
2018-03-06T14:38:51.147Z,157.80
2018-03-06T14:41:20.332Z,165.60
2018-03-06T14:43:49.462Z,151.53
2018-03-06T14:46:18.649Z,152.97
2018-03-06T14:48:47.797Z,161.43
2018-03-06T14:51:16.946Z,159.97
2018-03-06T14:53:46.147Z,151.87
2018-03-06T14:56:15.292Z,154.80
2018-03-06T14:58:44.482Z,153.93
2018-03-06T15:01:13.610Z,154.30
2018-03-06T15:03:42.829Z,160.90
2018-03-06T15:06:11.984Z,153.13
2018-03-06T15:08:41.163Z,152.17
2018-03-06T15:11:10.341Z,150.90
2018-03-06T15:13:39.488Z,155.40
2018-03-06T15:16:08.660Z,153.17
2018-03-06T15:18:37.821Z,146.03
2018-03-06T15:21:06.949Z,151.07
2018-03-06T15:23:36.129Z,154.20
2018-03-06T15:26:05.297Z,150.90
2018-03-06T15:28:34.479Z,149.37
2018-03-06T15:31:03.643Z,156.63
2018-03-06T15:33:32.843Z,151.90
2018-03-06T15:36:01.978Z,146.80
2018-03-06T15:38:31.134Z,159.53
2018-03-06T15:41:00.320Z,159.07
2018-03-06T15:43:29.477Z,154.73
2018-03-06T15:45:58.660Z,152.97
2018-03-06T15:48:27.797Z,159.20
2018-03-06T15:50:56.971Z,158.47
2018-03-06T15:53:26.113Z,159.97
2018-03-06T15:55:55.375Z,157.63
2018-03-06T15:58:24.537Z,153.87
2018-03-06T16:00:53.690Z,163.13
2018-03-06T16:03:22.877Z,152.23
2018-03-06T16:05:52.062Z,163.70
2018-03-06T16:08:21.206Z,158.47
2018-03-06T16:10:50.398Z,155.60
2018-03-06T16:13:19.563Z,151.63
2018-03-06T16:15:48.752Z,153.27
2018-03-06T16:18:17.897Z,152.40
2018-03-06T16:20:47.092Z,154.57
2018-03-06T16:23:16.275Z,157.57
2018-03-06T16:25:45.417Z,154.40
2018-03-06T16:28:14.567Z,154.53
2018-03-06T16:30:43.713Z,148.37
2018-03-06T16:33:12.855Z,139.33
2018-03-06T16:35:42.051Z,151.13
2018-03-06T16:38:11.234Z,153.17
2018-03-06T16:40:40.388Z,154.37
2018-03-06T16:43:09.521Z,148.80
2018-03-06T16:45:38.714Z,150.13
2018-03-06T16:48:07.851Z,160.13
2018-03-06T16:50:37.019Z,164.80
2018-03-06T16:53:06.202Z,173.63
2018-03-06T16:55:35.345Z,156.10
2018-03-06T16:58:04.501Z,157.50
2018-03-06T17:00:33.726Z,162.70
2018-03-06T17:03:02.894Z,157.87
2018-03-06T17:05:32.058Z,162.60
2018-03-06T17:08:01.242Z,150.67
2018-03-06T17:10:30.476Z,167.70
2018-03-06T17:12:59.625Z,168.80
2018-03-06T17:15:28.786Z,165.80
2018-03-06T17:17:57.960Z,161.53
2018-03-06T17:20:27.113Z,161.30
2018-03-06T17:22:56.285Z,166.23
2018-03-06T17:25:25.434Z,157.57
2018-03-06T17:27:54.600Z,157.27
2018-03-06T17:30:23.773Z,164.70
2018-03-06T17:32:52.926Z,158.73
2018-03-06T17:35:22.066Z,170.20
2018-03-06T17:37:51.231Z,156.20
2018-03-06T17:40:20.388Z,172.90
2018-03-06T17:42:49.573Z,160.37
2018-03-06T17:45:18.902Z,165.43
2018-03-06T17:47:48.059Z,164.73
2018-03-06T17:50:17.214Z,173.67
2018-03-06T17:52:46.366Z,162.13
2018-03-06T17:55:15.511Z,159.43
2018-03-06T17:57:44.665Z,169.53
2018-03-06T18:00:13.804Z,159.23
2018-03-06T18:02:42.941Z,182.40
2018-03-06T18:05:12.118Z,159.37
2018-03-06T18:07:41.250Z,164.20
2018-03-06T18:10:10.394Z,172.30
2018-03-06T18:12:39.569Z,161.87
2018-03-06T18:15:08.734Z,172.23
2018-03-06T18:17:37.930Z,168.80
2018-03-06T18:20:07.083Z,162.93
2018-03-06T18:22:36.226Z,169.27
2018-03-06T18:25:05.393Z,173.93
2018-03-06T18:27:34.525Z,174.77
2018-03-06T18:30:03.678Z,161.57
2018-03-06T18:32:32.883Z,166.87
2018-03-06T18:35:02.030Z,173.50
2018-03-06T18:37:31.197Z,190.90
2018-03-06T18:40:00.392Z,177.10
2018-03-06T18:42:29.590Z,163.87
2018-03-06T18:44:58.790Z,160.40
2018-03-06T18:47:27.897Z,173.73
2018-03-06T18:50:03.585Z,169.47
2018-03-06T18:52:32.750Z,170.27
2018-03-06T18:55:01.966Z,161.50
2018-03-06T18:57:31.159Z,167.63
2018-03-06T19:00:21.101Z,166.80
2018-03-06T19:02:56.053Z,168.60
2018-03-06T19:05:31.094Z,173.87
2018-03-06T19:08:00.369Z,175.60
2018-03-06T19:10:29.535Z,171.63
2018-03-06T19:12:58.701Z,176.97
2018-03-06T19:15:27.914Z,169.57
2018-03-06T19:17:57.076Z,175.73
2018-03-06T19:20:26.227Z,169.93
2018-03-06T19:22:55.465Z,172.50
2018-03-06T19:25:24.618Z,194.83
2018-03-06T19:27:53.787Z,189.10
2018-03-06T19:30:23.031Z,176.33
2018-03-06T19:32:52.199Z,174.40
2018-03-06T19:35:21.523Z,168.23
2018-03-06T19:37:50.748Z,178.03
2018-03-06T19:40:19.863Z,178.97
2018-03-06T19:42:49.038Z,169.50
2018-03-06T19:45:18.249Z,172.73
2018-03-06T19:47:47.660Z,188.40
2018-03-06T19:50:16.844Z,174.83
2018-03-06T19:52:46.308Z,181.73
2018-03-06T19:55:15.803Z,180.47
2018-03-06T19:57:46.981Z,183.40
2018-03-06T20:00:16.376Z,178.63
2018-03-06T20:02:45.558Z,175.37
2018-03-06T20:05:15.019Z,188.93
2018-03-06T20:07:44.207Z,182.47
2018-03-06T20:10:13.600Z,173.20
2018-03-06T20:12:43.044Z,188.10
2018-03-06T20:15:19.069Z,174.43
2018-03-06T20:17:48.221Z,188.57
2018-03-06T20:20:17.660Z,184.43
2018-03-06T20:22:47.074Z,179.77
2018-03-06T20:25:22.372Z,173.00
2018-03-06T20:27:51.760Z,169.80
2018-03-06T20:30:26.942Z,170.30
2018-03-06T20:33:02.093Z,172.80
2018-03-06T20:35:31.381Z,172.40
2018-03-06T20:38:00.542Z,177.33
2018-03-06T20:40:34.289Z,179.50
2018-03-06T20:43:03.464Z,170.67
2018-03-06T20:45:38.372Z,168.73
2018-03-06T20:48:07.514Z,177.53
2018-03-06T20:50:36.695Z,167.47
2018-03-06T20:53:11.605Z,176.33
2018-03-06T20:55:40.753Z,187.30
2018-03-06T20:58:09.905Z,182.17
2018-03-06T21:00:39.113Z,181.20
2018-03-06T21:03:08.261Z,171.77
2018-03-06T21:05:37.434Z,169.27
2018-03-06T21:08:06.631Z,172.67
2018-03-06T21:10:35.777Z,185.23
2018-03-06T21:13:04.959Z,172.83
2018-03-06T21:15:34.151Z,172.43
2018-03-06T21:18:03.289Z,169.10
2018-03-06T21:22:54.691Z,186.90
2018-03-06T21:25:23.878Z,174.93
2018-03-06T21:27:53.015Z,181.00
2018-03-06T21:30:22.700Z,173.10
2018-03-06T21:32:51.846Z,182.80
2018-03-06T21:35:21.017Z,166.27
2018-03-06T21:37:50.186Z,176.53
2018-03-06T21:40:19.325Z,164.93
2018-03-06T21:42:48.488Z,179.23
2018-03-06T21:45:17.655Z,176.70
2018-03-06T21:47:46.813Z,172.20
2018-03-06T21:50:15.992Z,178.97
2018-03-06T21:52:45.155Z,173.27
2018-03-06T21:57:51.174Z,175.73
2018-03-06T22:00:20.312Z,173.63
2018-03-06T22:02:49.455Z,176.57
2018-03-06T22:05:18.630Z,170.13
2018-03-06T22:07:47.777Z,177.73
2018-03-06T22:10:16.913Z,168.60
2018-03-06T22:12:46.688Z,184.07
2018-03-06T22:15:15.824Z,173.00
2018-03-06T22:17:44.984Z,168.53
2018-03-06T22:20:14.142Z,173.13
2018-03-06T22:22:43.425Z,174.57
2018-03-06T22:25:12.595Z,173.40
2018-03-06T22:27:41.757Z,172.90
2018-03-06T22:30:11.004Z,179.47
2018-03-06T22:32:40.259Z,180.30
2018-03-06T22:35:09.505Z,180.93
2018-03-06T22:37:38.649Z,174.90
2018-03-06T22:40:07.808Z,181.87
2018-03-06T22:42:36.992Z,180.13
2018-03-06T22:45:06.163Z,175.70
2018-03-06T22:47:35.326Z,187.70
2018-03-06T22:50:04.485Z,175.00
2018-03-06T22:52:33.639Z,177.73
2018-03-06T22:55:02.781Z,167.47
2018-03-06T22:57:31.948Z,190.90
2018-03-06T23:00:01.097Z,184.67
2018-03-06T23:02:30.285Z,187.30
2018-03-06T23:04:59.448Z,184.20
2018-03-06T23:07:28.614Z,181.67
2018-03-06T23:09:57.804Z,182.40
2018-03-06T23:12:26.943Z,187.33
2018-03-06T23:14:56.144Z,183.47
2018-03-06T23:17:25.318Z,178.60
2018-03-06T23:19:54.476Z,188.27
2018-03-06T23:22:23.767Z,181.93
2018-03-06T23:24:52.957Z,182.97
2018-03-06T23:27:22.098Z,177.97
2018-03-06T23:29:51.282Z,183.00
2018-03-06T23:32:20.442Z,174.50
2018-03-06T23:34:49.639Z,178.87
2018-03-06T23:37:18.926Z,180.10
2018-03-06T23:39:48.074Z,178.33
2018-03-06T23:42:17.219Z,170.70
2018-03-06T23:44:46.410Z,179.57
2018-03-06T23:47:15.616Z,184.00
2018-03-06T23:49:44.787Z,179.30
2018-03-06T23:52:13.935Z,181.33
2018-03-06T23:54:43.104Z,181.33
2018-03-06T23:57:12.261Z,180.47
2018-03-06T23:59:41.426Z,186.60
